createdAt,value
2022-11-28T00:00:37.157Z,97009.41
2022-11-28T00:03:38.955Z,97001.16
2022-11-28T00:06:46.929Z,97004.78
2022-11-28T00:09:48.596Z,97000.81
2022-11-28T00:12:50.117Z,97000.50
2022-11-28T00:16:02.624Z,96992.34
2022-11-28T00:19:06.173Z,96990.38
2022-11-28T00:22:07.678Z,96986.09
2022-11-28T00:25:09.256Z,96985.28
2022-11-28T00:28:10.736Z,96986.41
2022-11-28T00:31:21.591Z,96985.91
2022-11-28T00:34:23.219Z,96980.00
2022-11-28T00:37:24.723Z,96973.53
2022-11-28T00:40:26.300Z,96968.59
2022-11-28T00:43:28.154Z,96985.03
2022-11-28T00:46:29.873Z,96988.59
2022-11-28T00:49:31.393Z,96989.44
2022-11-28T00:52:33.385Z,96985.84
2022-11-28T00:55:34.989Z,96994.63
2022-11-28T00:58:37.535Z,96989.53
2022-11-28T01:01:43.767Z,96988.56
2022-11-28T01:04:45.462Z,96984.78
2022-11-28T01:07:47.081Z,96998.56
2022-11-28T01:10:48.631Z,96989.91
2022-11-28T01:13:50.583Z,96997.09
2022-11-28T01:16:52.574Z,96998.69
2022-11-28T01:19:54.204Z,96995.25
2022-11-28T01:22:55.687Z,97004.38
2022-11-28T01:25:57.370Z,97001.91
2022-11-28T01:29:00.743Z,97007.97
2022-11-28T01:32:02.426Z,97009.78
2022-11-28T01:35:04.346Z,97017.47
2022-11-28T01:38:06.358Z,97014.84
2022-11-28T01:41:08.788Z,97012.41
2022-11-28T01:44:12.988Z,97010.75
2022-11-28T01:47:20.618Z,97013.66
2022-11-28T01:50:23.409Z,97018.91
2022-11-28T01:53:28.788Z,97010.22
2022-11-28T01:56:40.136Z,96997.59
2022-11-28T01:59:49.247Z,96998.41
2022-11-28T02:03:04.399Z,96995.78
2022-11-28T02:06:06.316Z,96985.91
2022-11-28T02:09:15.932Z,96985.28
2022-11-28T02:12:34.902Z,96992.34
2022-11-28T02:15:57.677Z,96976.22
2022-11-28T02:19:25.229Z,96965.06
2022-11-28T02:22:52.383Z,96963.13
2022-11-28T02:26:31.861Z,96966.94
2022-11-28T02:29:36.378Z,96966.25
2022-11-28T02:33:05.593Z,96961.84
2022-11-28T02:36:30.200Z,96948.06
2022-11-28T02:39:45.414Z,96952.78
2022-11-28T02:43:07.990Z,96936.16
2022-11-28T02:46:19.117Z,96934.97
2022-11-28T02:49:33.690Z,96935.72
2022-11-28T02:52:47.102Z,96948.81
2022-11-28T02:55:51.621Z,96950.31
2022-11-28T02:58:53.448Z,96925.91
2022-11-28T03:01:55.185Z,96929.19
2022-11-28T03:05:04.268Z,96920.94
2022-11-28T03:08:19.200Z,96921.94
2022-11-28T03:11:35.582Z,96932.56
2022-11-28T03:15:00.398Z,96926.53
2022-11-28T03:18:15.738Z,96912.38
2022-11-28T03:21:29.079Z,96913.03
2022-11-28T03:24:33.756Z,96918.13
2022-11-28T03:27:45.730Z,96909.75
2022-11-28T03:30:53.711Z,96909.28
2022-11-28T03:33:58.311Z,96903.88
2022-11-28T03:37:08.592Z,96914.38
2022-11-28T03:40:15.179Z,96901.22
2022-11-28T03:43:21.933Z,96911.31
2022-11-28T03:46:27.129Z,96906.22
2022-11-28T03:49:37.636Z,96888.25
2022-11-28T03:52:49.318Z,96901.34
2022-11-28T03:56:05.529Z,96891.25
2022-11-28T03:59:10.551Z,96903.69
2022-11-28T04:02:38.891Z,96911.56
2022-11-28T04:05:50.508Z,96903.84
2022-11-28T04:09:03.477Z,96897.53
2022-11-28T04:12:10.513Z,96908.84
2022-11-28T04:15:21.109Z,96892.16
2022-11-28T04:18:40.437Z,96903.06
2022-11-28T04:22:09.704Z,96903.31
2022-11-28T04:25:15.070Z,96892.75
2022-11-28T04:28:21.476Z,96896.41
2022-11-28T04:31:24.330Z,96889.84
2022-11-28T04:34:28.423Z,96893.66
2022-11-28T04:37:32.517Z,96905.53
2022-11-28T04:40:41.879Z,96894.69
2022-11-28T04:43:50.012Z,96891.25
2022-11-28T04:46:54.640Z,96882.72
2022-11-28T04:49:56.225Z,96883.25
2022-11-28T04:53:06.187Z,96887.50
2022-11-28T04:56:13.551Z,96891.41
2022-11-28T04:59:15.753Z,96881.22
2022-11-28T05:02:18.915Z,96871.78
2022-11-28T05:05:24.178Z,96869.84
2022-11-28T05:08:25.662Z,96864.91
2022-11-28T05:11:27.721Z,96862.13
2022-11-28T05:14:29.430Z,96872.69
2022-11-28T05:17:30.927Z,96866.47
2022-11-28T05:20:32.578Z,96875.69
2022-11-28T05:23:41.244Z,96854.34
2022-11-28T05:26:43.242Z,96867.75
2022-11-28T05:29:51.924Z,96868.97
2022-11-28T05:32:53.935Z,96867.06
2022-11-28T05:35:56.347Z,96865.28
2022-11-28T05:38:57.884Z,96880.25
2022-11-28T05:41:59.412Z,96882.94
2022-11-28T05:45:01.130Z,96885.13
2022-11-28T05:48:02.659Z,96880.06
2022-11-28T05:51:05.317Z,96863.09
2022-11-28T05:54:07.231Z,96881.97
2022-11-28T05:57:08.841Z,96875.97
2022-11-28T06:00:11.070Z,96874.53
2022-11-28T06:03:15.878Z,96868.34
2022-11-28T06:06:20.485Z,96870.47
2022-11-28T06:09:25.627Z,96864.13
2022-11-28T06:12:27.719Z,96860.88
2022-11-28T06:15:37.612Z,96856.16
2022-11-28T06:18:40.661Z,96870.16
2022-11-28T06:21:42.280Z,96860.84
2022-11-28T06:24:50.289Z,96870.03
2022-11-28T06:27:57.746Z,96865.31
2022-11-28T06:30:59.399Z,96868.47
2022-11-28T06:34:00.907Z,96873.41
2022-11-28T06:37:02.426Z,96871.13
2022-11-28T06:40:05.022Z,96868.84
2022-11-28T06:43:06.535Z,96877.28
2022-11-28T06:46:15.917Z,96867.97
2022-11-28T06:49:17.956Z,96875.22
2022-11-28T06:52:19.537Z,96878.19
2022-11-28T06:55:21.083Z,96879.88
2022-11-28T06:58:22.620Z,96886.59
2022-11-28T07:01:25.900Z,96889.06
2022-11-28T07:04:27.400Z,96894.00
2022-11-28T07:07:29.010Z,96891.75
2022-11-28T07:10:30.646Z,96891.41
2022-11-28T07:13:32.122Z,96886.50
2022-11-28T07:16:33.874Z,96896.34
2022-11-28T07:19:35.418Z,96904.44
2022-11-28T07:22:36.931Z,96891.81
2022-11-28T07:25:38.651Z,96899.69
2022-11-28T07:28:40.878Z,96908.22
2022-11-28T07:31:42.494Z,96915.47
2022-11-28T07:34:49.865Z,96909.78
2022-11-28T07:37:51.730Z,96910.44
2022-11-28T07:40:53.296Z,96913.25
2022-11-28T07:43:57.618Z,96908.34
2022-11-28T07:46:59.175Z,96912.63
2022-11-28T07:50:00.693Z,96913.28
2022-11-28T07:53:06.971Z,96911.66
2022-11-28T07:56:13.946Z,96907.91
2022-11-28T07:59:16.195Z,96915.97
2022-11-28T08:02:17.803Z,96914.16
2022-11-28T08:05:19.474Z,96925.16
2022-11-28T08:08:21.052Z,96915.97
2022-11-28T08:11:25.027Z,96918.91
2022-11-28T08:14:26.614Z,96922.22
2022-11-28T08:17:28.169Z,96912.66
2022-11-28T08:20:29.955Z,96907.06
2022-11-28T08:23:34.338Z,96907.69
2022-11-28T08:26:36.587Z,96908.47
2022-11-28T08:29:38.101Z,96903.81
2022-11-28T08:32:42.587Z,96899.09
2022-11-28T08:35:45.263Z,96910.53
2022-11-28T08:39:03.302Z,96903.44
2022-11-28T08:42:07.431Z,96897.47
2022-11-28T08:45:11.097Z,96899.59
2022-11-28T08:48:12.823Z,96892.25
2022-11-28T08:51:16.874Z,96880.97
2022-11-28T08:54:18.686Z,96893.94
2022-11-28T08:57:20.579Z,96886.94
2022-11-28T09:00:22.423Z,96885.06
2022-11-28T09:03:24.217Z,96881.53
2022-11-28T09:06:25.862Z,96888.28
2022-11-28T09:09:32.612Z,96884.38
2022-11-28T09:12:34.428Z,96895.00
2022-11-28T09:15:40.162Z,96884.13
2022-11-28T09:18:41.715Z,96890.69
2022-11-28T09:21:43.709Z,96891.25
2022-11-28T09:24:45.180Z,96885.09
2022-11-28T09:27:46.729Z,96888.53
2022-11-28T09:30:48.394Z,96888.31
2022-11-28T09:33:50.294Z,96881.56
2022-11-28T09:36:51.875Z,96889.44
2022-11-28T09:40:12.113Z,96895.16
2022-11-28T09:43:29.451Z,96891.69
2022-11-28T09:46:38.776Z,96896.31
2022-11-28T09:49:41.411Z,96895.97
2022-11-28T09:53:05.002Z,96890.34
2022-11-28T09:56:15.325Z,96892.13
2022-11-28T09:59:24.987Z,96899.97
2022-11-28T10:02:34.891Z,96895.78
2022-11-28T10:05:46.305Z,96895.31
2022-11-28T10:08:59.971Z,96896.25
2022-11-28T10:12:30.140Z,96883.03
2022-11-28T10:15:44.696Z,96891.88
2022-11-28T10:18:55.132Z,96887.06
2022-11-28T10:22:00.363Z,96888.22
2022-11-28T10:25:11.399Z,96894.53
2022-11-28T10:28:19.091Z,96893.00
2022-11-28T10:31:39.328Z,96896.53
2022-11-28T10:34:46.155Z,96884.97
2022-11-28T10:37:49.465Z,96891.34
2022-11-28T10:41:13.831Z,96887.34
2022-11-28T10:45:02.922Z,96886.50
2022-11-28T10:48:40.044Z,96880.06
2022-11-28T10:51:58.476Z,96877.59
2022-11-28T10:55:16.945Z,96872.59
2022-11-28T10:58:24.470Z,96868.94
2022-11-28T11:01:39.339Z,96855.44
2022-11-28T11:04:41.349Z,96855.91
2022-11-28T11:07:54.862Z,96850.81
2022-11-28T11:11:17.897Z,96845.22
2022-11-28T11:14:41.488Z,96838.53
2022-11-28T11:17:46.478Z,96836.69
2022-11-28T11:20:48.105Z,96826.41
2022-11-28T11:24:10.064Z,96820.78
2022-11-28T11:27:21.504Z,96823.31
2022-11-28T11:30:29.169Z,96817.03
2022-11-28T11:33:35.182Z,96812.19
2022-11-28T11:36:37.606Z,96806.16
2022-11-28T11:39:49.537Z,96809.44
2022-11-28T11:42:54.548Z,96803.00
2022-11-28T11:46:10.951Z,96809.63
2022-11-28T11:49:29.934Z,96792.00
2022-11-28T11:52:31.728Z,96796.38
2022-11-28T11:55:45.428Z,96805.13
2022-11-28T11:58:51.854Z,96798.13
2022-11-28T12:02:00.362Z,96795.09
2022-11-28T12:05:09.891Z,96786.94
2022-11-28T12:08:31.711Z,96788.94
2022-11-28T12:11:46.592Z,96791.13
2022-11-28T12:14:49.899Z,96792.16
2022-11-28T12:18:16.942Z,96801.97
2022-11-28T12:21:28.180Z,96782.03
2022-11-28T12:24:56.795Z,96791.78
2022-11-28T12:28:19.119Z,96773.41
2022-11-28T12:31:35.772Z,96773.41
2022-11-28T12:34:46.126Z,96781.16
2022-11-28T12:38:15.291Z,96778.06
2022-11-28T12:41:16.840Z,96774.16
2022-11-28T12:44:27.072Z,96762.88
2022-11-28T12:47:59.818Z,96765.09
2022-11-28T12:51:26.409Z,96762.88
2022-11-28T12:54:45.763Z,96754.34
2022-11-28T12:58:07.146Z,96751.06
2022-11-28T13:01:24.216Z,96756.13
2022-11-28T13:04:44.470Z,96749.66
2022-11-28T13:07:59.094Z,96747.81
2022-11-28T13:11:12.666Z,96751.44
2022-11-28T13:14:46.437Z,96743.88
2022-11-28T13:18:17.991Z,96741.28
2022-11-28T13:21:42.221Z,96745.44
2022-11-28T13:24:48.629Z,96737.78
2022-11-28T13:27:53.173Z,96733.88
2022-11-28T13:31:31.485Z,96739.50
2022-11-28T13:34:34.396Z,96744.44
2022-11-28T13:42:09.563Z,96736.16
2022-11-28T13:45:08.747Z,96739.09
2022-11-28T13:52:18.752Z,96742.06
2022-11-28T13:55:47.952Z,96748.38
2022-11-28T13:58:58.055Z,96757.66
2022-11-28T14:02:02.367Z,96762.63
2022-11-28T14:05:21.468Z,96755.97
2022-11-28T14:08:32.804Z,96750.41
2022-11-28T14:12:07.978Z,96743.75
2022-11-28T14:15:27.656Z,96747.94
2022-11-28T14:18:56.712Z,96747.22
2022-11-28T14:22:16.968Z,96751.44
2022-11-28T14:25:26.572Z,96760.13
2022-11-28T14:28:36.707Z,96751.53
2022-11-28T14:31:39.873Z,96747.63
2022-11-28T14:34:45.586Z,96752.28
2022-11-28T14:37:55.452Z,96757.28
2022-11-28T14:40:57.240Z,96756.66
2022-11-28T14:44:44.115Z,96764.88
2022-11-28T14:48:06.682Z,96762.13
2022-11-28T14:51:09.020Z,96759.50
2022-11-28T14:54:29.295Z,96761.16
2022-11-28T14:57:35.931Z,96764.59
2022-11-28T15:00:54.470Z,96764.31
2022-11-28T15:04:12.759Z,96763.69
2022-11-28T15:08:11.678Z,96769.72
2022-11-28T15:11:32.968Z,96773.63
2022-11-28T15:14:35.487Z,96773.66
2022-11-28T15:17:38.127Z,96783.47
2022-11-28T15:20:48.074Z,96789.75
2022-11-28T15:23:49.967Z,96802.66
2022-11-28T15:26:57.379Z,96792.06
2022-11-28T15:30:01.240Z,96791.25
2022-11-28T15:33:03.771Z,96799.00
2022-11-28T15:36:27.165Z,96798.50
2022-11-28T15:39:36.779Z,96798.56
2022-11-28T15:42:38.898Z,96796.16
2022-11-28T15:45:42.299Z,96796.69
2022-11-28T15:48:49.482Z,96798.66
2022-11-28T15:51:54.357Z,96802.78
2022-11-28T15:54:56.286Z,96798.97
2022-11-28T15:58:37.687Z,96799.38
2022-11-28T16:01:40.551Z,96809.78
2022-11-28T16:04:42.989Z,96806.22
2022-11-28T16:07:45.479Z,96800.28
2022-11-28T16:10:47.155Z,96812.25
2022-11-28T16:13:50.324Z,96806.53
2022-11-28T16:16:51.921Z,96802.59
2022-11-28T16:19:55.390Z,96810.03
2022-11-28T16:23:04.462Z,96810.66
2022-11-28T16:26:19.978Z,96820.97
2022-11-28T16:29:31.792Z,96817.19
2022-11-28T16:32:39.463Z,96812.25
2022-11-28T16:35:41.607Z,96816.81
2022-11-28T16:38:48.403Z,96807.16
2022-11-28T16:41:54.690Z,96818.88
2022-11-28T16:44:56.734Z,96819.53
2022-11-28T16:48:01.097Z,96818.34
2022-11-28T16:51:02.893Z,96826.72
2022-11-28T16:54:32.002Z,96819.88
2022-11-28T16:57:46.823Z,96817.41
2022-11-28T17:01:00.893Z,96814.50
2022-11-28T17:04:03.442Z,96822.09
2022-11-28T17:07:09.471Z,96816.44
2022-11-28T17:10:14.085Z,96822.19
2022-11-28T17:13:17.378Z,96821.53
2022-11-28T17:16:23.833Z,96813.16
2022-11-28T17:19:25.642Z,96815.16
2022-11-28T17:22:43.486Z,96812.53
2022-11-28T17:25:44.967Z,96821.91
2022-11-28T17:28:47.047Z,96815.28
2022-11-28T17:31:48.981Z,96820.41
2022-11-28T17:34:50.554Z,96810.66
2022-11-28T17:37:52.094Z,96818.25
2022-11-28T17:40:53.610Z,96819.88
2022-11-28T17:43:55.169Z,96819.03
2022-11-28T17:46:58.130Z,96816.88
2022-11-28T17:50:00.045Z,96811.31
2022-11-28T17:53:01.646Z,96812.50
2022-11-28T17:56:03.559Z,96813.47
2022-11-28T17:59:05.518Z,96814.13
2022-11-28T18:02:07.060Z,96814.00
2022-11-28T18:05:09.650Z,96820.91
2022-11-28T18:08:12.472Z,96820.75
2022-11-28T18:11:15.274Z,96826.66
2022-11-28T18:14:19.804Z,96833.38
2022-11-28T18:17:22.182Z,96825.31
2022-11-28T18:20:28.451Z,96825.66
2022-11-28T18:23:30.037Z,96831.44
2022-11-28T18:26:31.829Z,96826.16
2022-11-28T18:29:34.239Z,96829.69
2022-11-28T18:32:35.814Z,96837.09
2022-11-28T18:35:38.151Z,96833.75
2022-11-28T18:38:40.731Z,96829.81
2022-11-28T18:41:42.514Z,96833.44
2022-11-28T18:44:44.026Z,96842.63
2022-11-28T18:47:45.579Z,96845.44
2022-11-28T18:50:47.080Z,96845.91
2022-11-28T18:53:49.828Z,96853.00
2022-11-28T18:56:52.551Z,96853.00
2022-11-28T18:59:55.391Z,96854.16
2022-11-28T19:02:57.651Z,96844.66
2022-11-28T19:05:59.496Z,96852.91
2022-11-28T19:09:03.373Z,96851.09
2022-11-28T19:12:05.049Z,96851.94
2022-11-28T19:15:07.786Z,96853.22
2022-11-28T19:18:09.331Z,96857.84
2022-11-28T19:21:14.219Z,96852.75
2022-11-28T19:24:15.799Z,96859.63
2022-11-28T19:27:17.436Z,96857.88
2022-11-28T19:30:19.135Z,96856.56
2022-11-28T19:33:20.779Z,96853.78
2022-11-28T19:36:22.383Z,96858.91
2022-11-28T19:39:25.308Z,96855.75
2022-11-28T19:42:27.239Z,96864.81
2022-11-28T19:45:28.774Z,96864.16
2022-11-28T19:48:32.446Z,96867.75
2022-11-28T19:51:34.845Z,96869.91
2022-11-28T19:54:37.054Z,96877.00
2022-11-28T19:57:38.882Z,96875.66
2022-11-28T20:00:41.109Z,96876.47
2022-11-28T20:03:47.537Z,96872.03
2022-11-28T20:06:49.421Z,96870.69
2022-11-28T20:09:51.200Z,96873.16
2022-11-28T20:12:54.177Z,96876.63
2022-11-28T20:16:02.260Z,96878.63
2022-11-28T20:19:05.301Z,96889.16
2022-11-28T20:22:08.077Z,96877.81
2022-11-28T20:25:10.094Z,96879.63
2022-11-28T20:28:15.820Z,96894.41
2022-11-28T20:31:33.853Z,96889.34
2022-11-28T20:34:35.694Z,96898.72
2022-11-28T20:37:39.016Z,96896.72
2022-11-28T20:40:40.495Z,96899.19
2022-11-28T20:43:42.626Z,96892.91
2022-11-28T20:46:46.440Z,96903.28
2022-11-28T20:49:48.376Z,96898.00
2022-11-28T20:52:49.972Z,96901.66
2022-11-28T20:56:02.833Z,96907.56
2022-11-28T20:59:05.976Z,96910.03
2022-11-28T21:02:10.009Z,96911.84
2022-11-28T21:05:13.907Z,96910.84
2022-11-28T21:08:15.590Z,96915.00
2022-11-28T21:14:48.813Z,96909.25
2022-11-28T21:17:59.490Z,96913.81
2022-11-28T21:21:07.136Z,96911.84
2022-11-28T21:24:12.061Z,96912.03
2022-11-28T21:27:13.973Z,96910.06
2022-11-28T21:30:15.794Z,96913.88
2022-11-28T21:33:17.415Z,96909.94
2022-11-28T21:36:19.406Z,96906.13
2022-11-28T21:39:21.838Z,96914.03
2022-11-28T21:42:23.450Z,96912.56
2022-11-28T21:45:25.903Z,96908.75
2022-11-28T21:48:29.358Z,96919.94
2022-11-28T21:51:30.979Z,96920.75
2022-11-28T21:54:32.514Z,96921.59
2022-11-28T21:57:34.495Z,96914.19
2022-11-28T22:00:53.071Z,96918.66
2022-11-28T22:04:00.629Z,96923.25
2022-11-28T22:07:03.939Z,96929.34
2022-11-28T22:10:06.360Z,96925.38
2022-11-28T22:13:07.914Z,96926.66
2022-11-28T22:16:20.126Z,96925.69
2022-11-28T22:19:23.322Z,96931.78
2022-11-28T22:22:28.514Z,96927.03
2022-11-28T22:25:30.726Z,96926.22
2022-11-28T22:28:34.051Z,96932.63
2022-11-28T22:31:35.787Z,96929.66
2022-11-28T22:34:40.049Z,96931.50
2022-11-28T22:37:42.769Z,96936.06
2022-11-28T22:40:44.705Z,96930.31
2022-11-28T22:43:47.031Z,96929.03
2022-11-28T22:46:49.203Z,96928.38
2022-11-28T22:49:50.944Z,96927.34
2022-11-28T22:52:52.627Z,96933.97
2022-11-28T22:55:54.478Z,96940.03
2022-11-28T22:58:56.116Z,96940.22
2022-11-28T23:01:58.565Z,96944.00
2022-11-28T23:05:00.387Z,96947.13
2022-11-28T23:08:03.103Z,96948.75
2022-11-28T23:11:10.721Z,96947.47
2022-11-28T23:14:14.058Z,96956.66
2022-11-28T23:17:16.568Z,96965.22
2022-11-28T23:20:18.162Z,96958.47
2022-11-28T23:23:19.899Z,96958.97
2022-11-28T23:26:24.565Z,96955.19
2022-11-28T23:29:27.494Z,96968.84
2022-11-28T23:32:29.814Z,96976.09
2022-11-28T23:35:31.429Z,96965.28
2022-11-28T23:38:33.119Z,96962.31
2022-11-28T23:41:34.826Z,96963.94
2022-11-28T23:44:36.366Z,96966.91
2022-11-28T23:47:37.989Z,96960.81
2022-11-28T23:50:39.596Z,96965.28
2022-11-28T23:53:42.390Z,96965.44
2022-11-28T23:56:44.088Z,96966.09
2022-11-28T23:59:45.713Z,96969.53
